sensor_id;sensor_type;location;lat;lon;timestamp;P1;durP1;ratioP1;P2;durP2;ratioP2
757;SDS011;363;48.764;9.172;2023-12-14T00:02:15;1.40;;;1.30;;
757;SDS011;363;48.764;9.172;2023-12-14T00:04:40;1.73;;;1.40;;
757;SDS011;363;48.764;9.172;2023-12-14T00:07:06;1.23;;;1.13;;
757;SDS011;363;48.764;9.172;2023-12-14T00:09:31;2.33;;;1.60;;
757;SDS011;363;48.764;9.172;2023-12-14T00:11:57;2.80;;;1.40;;
757;SDS011;363;48.764;9.172;2023-12-14T00:14:22;2.30;;;1.43;;
757;SDS011;363;48.764;9.172;2023-12-14T00:16:48;2.07;;;1.47;;
757;SDS011;363;48.764;9.172;2023-12-14T00:19:14;1.70;;;1.50;;
757;SDS011;363;48.764;9.172;2023-12-14T00:21:40;1.90;;;1.70;;
757;SDS011;363;48.764;9.172;2023-12-14T00:24:06;2.07;;;1.90;;
757;SDS011;363;48.764;9.172;2023-12-14T00:26:31;2.67;;;1.77;;
757;SDS011;363;48.764;9.172;2023-12-14T00:28:57;2.57;;;1.70;;
757;SDS011;363;48.764;9.172;2023-12-14T00:31:22;3.30;;;1.50;;
757;SDS011;363;48.764;9.172;2023-12-14T00:33:48;2.23;;;1.73;;
757;SDS011;363;48.764;9.172;2023-12-14T00:36:19;2.23;;;1.63;;
757;SDS011;363;48.764;9.172;2023-12-14T00:38:45;1.80;;;1.67;;
757;SDS011;363;48.764;9.172;2023-12-14T00:41:11;1.98;;;1.70;;
757;SDS011;363;48.764;9.172;2023-12-14T00:43:37;2.22;;;1.75;;
757;SDS011;363;48.764;9.172;2023-12-14T00:46:03;2.17;;;1.70;;
757;SDS011;363;48.764;9.172;2023-12-14T00:48:29;3.97;;;2.57;;
757;SDS011;363;48.764;9.172;2023-12-14T00:50:54;2.50;;;2.00;;
757;SDS011;363;48.764;9.172;2023-12-14T00:53:20;3.57;;;1.77;;
757;SDS011;363;48.764;9.172;2023-12-14T00:55:45;3.00;;;2.00;;
757;SDS011;363;48.764;9.172;2023-12-14T00:58:11;2.77;;;2.33;;
757;SDS011;363;48.764;9.172;2023-12-14T01:00:39;3.20;;;2.67;;
757;SDS011;363;48.764;9.172;2023-12-14T01:03:06;4.57;;;2.80;;
757;SDS011;363;48.764;9.172;2023-12-14T01:05:31;3.70;;;2.33;;
757;SDS011;363;48.764;9.172;2023-12-14T01:07:57;3.93;;;3.53;;
757;SDS011;363;48.764;9.172;2023-12-14T01:10:22;4.10;;;3.00;;
757;SDS011;363;48.764;9.172;2023-12-14T01:12:48;3.73;;;3.37;;
757;SDS011;363;48.764;9.172;2023-12-14T01:15:14;5.80;;;3.80;;
757;SDS011;363;48.764;9.172;2023-12-14T01:17:39;4.57;;;3.03;;
757;SDS011;363;48.764;9.172;2023-12-14T01:20:05;6.40;;;3.03;;
757;SDS011;363;48.764;9.172;2023-12-14T01:22:32;4.13;;;3.47;;
757;SDS011;363;48.764;9.172;2023-12-14T01:24:58;4.22;;;3.40;;
757;SDS011;363;48.764;9.172;2023-12-14T01:27:24;6.67;;;3.63;;
757;SDS011;363;48.764;9.172;2023-12-14T01:29:49;3.60;;;3.17;;
757;SDS011;363;48.764;9.172;2023-12-14T01:32:15;5.10;;;3.17;;
757;SDS011;363;48.764;9.172;2023-12-14T01:34:41;3.53;;;2.57;;
757;SDS011;363;48.764;9.172;2023-12-14T01:37:06;2.73;;;2.13;;
757;SDS011;363;48.764;9.172;2023-12-14T01:39:32;3.87;;;2.20;;
757;SDS011;363;48.764;9.172;2023-12-14T01:41:58;2.33;;;2.00;;
757;SDS011;363;48.764;9.172;2023-12-14T01:44:23;4.60;;;2.10;;
757;SDS011;363;48.764;9.172;2023-12-14T01:46:49;2.53;;;1.90;;
757;SDS011;363;48.764;9.172;2023-12-14T01:49:14;4.83;;;2.40;;
757;SDS011;363;48.764;9.172;2023-12-14T01:51:40;2.60;;;2.23;;
757;SDS011;363;48.764;9.172;2023-12-14T01:54:06;3.07;;;2.03;;
757;SDS011;363;48.764;9.172;2023-12-14T01:56:31;3.23;;;2.10;;
757;SDS011;363;48.764;9.172;2023-12-14T01:58:57;4.20;;;2.27;;
757;SDS011;363;48.764;9.172;2023-12-14T02:01:26;3.77;;;2.00;;
757;SDS011;363;48.764;9.172;2023-12-14T02:03:59;2.17;;;1.98;;
757;SDS011;363;48.764;9.172;2023-12-14T02:06:25;2.40;;;2.10;;
757;SDS011;363;48.764;9.172;2023-12-14T02:08:51;2.40;;;2.17;;
757;SDS011;363;48.764;9.172;2023-12-14T02:11:17;2.30;;;1.55;;
757;SDS011;363;48.764;9.172;2023-12-14T02:13:42;2.53;;;1.97;;
757;SDS011;363;48.764;9.172;2023-12-14T02:16:08;2.50;;;1.90;;
757;SDS011;363;48.764;9.172;2023-12-14T02:18:34;2.30;;;1.97;;
757;SDS011;363;48.764;9.172;2023-12-14T02:20:59;4.13;;;1.97;;
757;SDS011;363;48.764;9.172;2023-12-14T02:23:25;2.07;;;1.80;;
757;SDS011;363;48.764;9.172;2023-12-14T02:25:51;1.40;;;1.13;;
757;SDS011;363;48.764;9.172;2023-12-14T02:28:16;1.10;;;1.00;;
757;SDS011;363;48.764;9.172;2023-12-14T02:30:42;3.03;;;1.20;;
757;SDS011;363;48.764;9.172;2023-12-14T02:33:07;1.67;;;1.50;;
757;SDS011;363;48.764;9.172;2023-12-14T02:35:33;1.90;;;1.43;;
757;SDS011;363;48.764;9.172;2023-12-14T02:37:58;3.33;;;1.23;;
757;SDS011;363;48.764;9.172;2023-12-14T02:40:24;1.57;;;1.47;;
757;SDS011;363;48.764;9.172;2023-12-14T02:42:49;1.23;;;1.13;;
757;SDS011;363;48.764;9.172;2023-12-14T02:45:15;2.20;;;1.67;;
757;SDS011;363;48.764;9.172;2023-12-14T02:47:41;1.43;;;1.17;;
757;SDS011;363;48.764;9.172;2023-12-14T02:50:06;1.33;;;1.13;;
757;SDS011;363;48.764;9.172;2023-12-14T02:52:32;1.70;;;1.40;;
757;SDS011;363;48.764;9.172;2023-12-14T02:54:58;2.37;;;1.20;;
757;SDS011;363;48.764;9.172;2023-12-14T02:57:23;2.90;;;1.47;;
757;SDS011;363;48.764;9.172;2023-12-14T02:59:49;1.90;;;1.33;;
757;SDS011;363;48.764;9.172;2023-12-14T03:02:14;4.20;;;1.27;;
757;SDS011;363;48.764;9.172;2023-12-14T03:04:40;1.87;;;1.70;;
757;SDS011;363;48.764;9.172;2023-12-14T03:07:05;5.43;;;1.60;;
757;SDS011;363;48.764;9.172;2023-12-14T03:09:31;1.70;;;1.60;;
757;SDS011;363;48.764;9.172;2023-12-14T03:11:57;1.80;;;1.60;;
757;SDS011;363;48.764;9.172;2023-12-14T03:14:25;2.25;;;1.70;;
757;SDS011;363;48.764;9.172;2023-12-14T03:16:50;1.83;;;1.73;;
757;SDS011;363;48.764;9.172;2023-12-14T03:19:16;2.73;;;1.50;;
757;SDS011;363;48.764;9.172;2023-12-14T03:21:44;1.47;;;1.37;;
757;SDS011;363;48.764;9.172;2023-12-14T03:24:10;1.70;;;1.60;;
757;SDS011;363;48.764;9.172;2023-12-14T03:26:35;1.63;;;1.47;;
757;SDS011;363;48.764;9.172;2023-12-14T03:29:01;2.60;;;1.93;;
757;SDS011;363;48.764;9.172;2023-12-14T03:31:27;1.77;;;1.30;;
757;SDS011;363;48.764;9.172;2023-12-14T03:33:52;2.07;;;1.50;;
757;SDS011;363;48.764;9.172;2023-12-14T03:36:18;1.90;;;1.50;;
757;SDS011;363;48.764;9.172;2023-12-14T03:38:43;1.70;;;1.60;;
757;SDS011;363;48.764;9.172;2023-12-14T03:41:09;1.97;;;1.60;;
757;SDS011;363;48.764;9.172;2023-12-14T03:43:34;1.50;;;1.30;;
757;SDS011;363;48.764;9.172;2023-12-14T03:46:00;1.70;;;1.60;;
757;SDS011;363;48.764;9.172;2023-12-14T03:48:25;1.27;;;1.17;;
757;SDS011;363;48.764;9.172;2023-12-14T03:50:51;1.83;;;1.73;;
757;SDS011;363;48.764;9.172;2023-12-14T03:53:16;1.27;;;1.17;;
757;SDS011;363;48.764;9.172;2023-12-14T03:55:42;1.70;;;1.60;;
757;SDS011;363;48.764;9.172;2023-12-14T03:58:08;1.33;;;1.17;;
757;SDS011;363;48.764;9.172;2023-12-14T04:00:33;1.73;;;1.27;;
757;SDS011;363;48.764;9.172;2023-12-14T04:02:59;1.50;;;1.40;;
757;SDS011;363;48.764;9.172;2023-12-14T04:05:24;2.07;;;1.57;;
757;SDS011;363;48.764;9.172;2023-12-14T04:07:50;2.67;;;1.40;;
757;SDS011;363;48.764;9.172;2023-12-14T04:10:15;3.67;;;1.70;;
757;SDS011;363;48.764;9.172;2023-12-14T04:12:41;1.40;;;1.30;;
757;SDS011;363;48.764;9.172;2023-12-14T04:15:07;2.70;;;1.57;;
757;SDS011;363;48.764;9.172;2023-12-14T04:17:34;1.80;;;1.70;;
757;SDS011;363;48.764;9.172;2023-12-14T04:20:00;2.20;;;1.90;;
757;SDS011;363;48.764;9.172;2023-12-14T04:22:26;1.90;;;1.50;;
757;SDS011;363;48.764;9.172;2023-12-14T04:24:52;1.67;;;1.57;;
757;SDS011;363;48.764;9.172;2023-12-14T04:27:17;2.13;;;1.93;;
757;SDS011;363;48.764;9.172;2023-12-14T04:29:43;4.10;;;1.70;;
757;SDS011;363;48.764;9.172;2023-12-14T04:32:08;2.23;;;1.30;;
757;SDS011;363;48.764;9.172;2023-12-14T04:34:35;1.50;;;1.30;;
757;SDS011;363;48.764;9.172;2023-12-14T04:37:00;1.57;;;1.40;;
757;SDS011;363;48.764;9.172;2023-12-14T04:39:26;2.20;;;2.00;;
757;SDS011;363;48.764;9.172;2023-12-14T04:41:52;2.20;;;1.97;;
757;SDS011;363;48.764;9.172;2023-12-14T04:44:19;2.17;;;1.98;;
757;SDS011;363;48.764;9.172;2023-12-14T04:46:46;2.08;;;1.88;;
757;SDS011;363;48.764;9.172;2023-12-14T04:49:12;2.20;;;2.00;;
757;SDS011;363;48.764;9.172;2023-12-14T04:51:37;2.50;;;2.30;;
757;SDS011;363;48.764;9.172;2023-12-14T04:54:03;2.10;;;1.70;;
757;SDS011;363;48.764;9.172;2023-12-14T04:56:29;5.13;;;2.97;;
757;SDS011;363;48.764;9.172;2023-12-14T04:58:54;2.67;;;2.30;;
757;SDS011;363;48.764;9.172;2023-12-14T05:01:20;2.90;;;2.70;;
757;SDS011;363;48.764;9.172;2023-12-14T05:03:45;3.53;;;2.47;;
757;SDS011;363;48.764;9.172;2023-12-14T05:06:11;2.47;;;2.27;;
757;SDS011;363;48.764;9.172;2023-12-14T05:08:36;5.40;;;3.03;;
757;SDS011;363;48.764;9.172;2023-12-14T05:11:02;2.80;;;2.60;;
757;SDS011;363;48.764;9.172;2023-12-14T05:13:28;4.80;;;2.60;;
757;SDS011;363;48.764;9.172;2023-12-14T05:15:53;3.23;;;2.93;;
757;SDS011;363;48.764;9.172;2023-12-14T05:18:19;5.13;;;2.90;;
757;SDS011;363;48.764;9.172;2023-12-14T05:20:45;3.30;;;3.00;;
757;SDS011;363;48.764;9.172;2023-12-14T05:23:11;4.00;;;3.60;;
757;SDS011;363;48.764;9.172;2023-12-14T05:25:37;5.47;;;3.47;;
757;SDS011;363;48.764;9.172;2023-12-14T05:28:03;5.47;;;4.00;;
757;SDS011;363;48.764;9.172;2023-12-14T05:30:29;4.17;;;3.77;;
757;SDS011;363;48.764;9.172;2023-12-14T05:32:55;4.10;;;3.43;;
757;SDS011;363;48.764;9.172;2023-12-14T05:35:20;4.40;;;3.90;;
757;SDS011;363;48.764;9.172;2023-12-14T05:37:46;4.73;;;4.20;;
757;SDS011;363;48.764;9.172;2023-12-14T05:40:12;4.20;;;3.70;;
757;SDS011;363;48.764;9.172;2023-12-14T05:42:38;5.03;;;4.00;;
757;SDS011;363;48.764;9.172;2023-12-14T05:45:04;4.03;;;3.60;;
757;SDS011;363;48.764;9.172;2023-12-14T05:47:30;6.50;;;4.20;;
757;SDS011;363;48.764;9.172;2023-12-14T05:49:58;4.65;;;4.13;;
757;SDS011;363;48.764;9.172;2023-12-14T05:52:24;5.75;;;3.90;;
757;SDS011;363;48.764;9.172;2023-12-14T05:54:49;5.90;;;3.87;;
757;SDS011;363;48.764;9.172;2023-12-14T05:57:15;5.97;;;3.97;;
757;SDS011;363;48.764;9.172;2023-12-14T05:59:41;4.50;;;4.10;;
757;SDS011;363;48.764;9.172;2023-12-14T06:02:06;4.80;;;3.93;;
757;SDS011;363;48.764;9.172;2023-12-14T06:04:32;4.27;;;3.70;;
757;SDS011;363;48.764;9.172;2023-12-14T06:06:57;4.87;;;4.37;;
757;SDS011;363;48.764;9.172;2023-12-14T06:09:23;3.93;;;3.57;;
757;SDS011;363;48.764;9.172;2023-12-14T06:11:56;6.50;;;3.80;;
757;SDS011;363;48.764;9.172;2023-12-14T06:14:22;4.80;;;3.70;;
757;SDS011;363;48.764;9.172;2023-12-14T06:16:48;5.27;;;4.57;;
757;SDS011;363;48.764;9.172;2023-12-14T06:19:13;4.40;;;3.70;;
757;SDS011;363;48.764;9.172;2023-12-14T06:21:39;4.63;;;3.80;;
757;SDS011;363;48.764;9.172;2023-12-14T06:24:05;4.35;;;3.95;;
757;SDS011;363;48.764;9.172;2023-12-14T06:26:31;5.67;;;4.10;;
757;SDS011;363;48.764;9.172;2023-12-14T06:28:57;4.00;;;3.57;;
757;SDS011;363;48.764;9.172;2023-12-14T06:31:23;5.30;;;3.92;;
757;SDS011;363;48.764;9.172;2023-12-14T06:33:48;5.40;;;3.40;;
757;SDS011;363;48.764;9.172;2023-12-14T06:36:18;4.20;;;3.80;;
757;SDS011;363;48.764;9.172;2023-12-14T06:38:43;4.80;;;4.35;;
757;SDS011;363;48.764;9.172;2023-12-14T06:41:20;3.93;;;3.53;;
757;SDS011;363;48.764;9.172;2023-12-14T06:43:46;5.55;;;4.40;;
757;SDS011;363;48.764;9.172;2023-12-14T06:46:11;8.77;;;4.60;;
757;SDS011;363;48.764;9.172;2023-12-14T06:48:37;6.10;;;4.60;;
757;SDS011;363;48.764;9.172;2023-12-14T06:51:02;4.23;;;3.83;;
757;SDS011;363;48.764;9.172;2023-12-14T06:53:28;4.90;;;4.50;;
757;SDS011;363;48.764;9.172;2023-12-14T06:55:55;4.15;;;3.80;;
757;SDS011;363;48.764;9.172;2023-12-14T06:58:20;5.60;;;5.00;;
757;SDS011;363;48.764;9.172;2023-12-14T07:00:46;6.33;;;4.33;;
757;SDS011;363;48.764;9.172;2023-12-14T07:03:13;9.25;;;6.85;;
757;SDS011;363;48.764;9.172;2023-12-14T07:05:39;16.37;;;8.50;;
757;SDS011;363;48.764;9.172;2023-12-14T07:08:04;7.70;;;5.70;;
757;SDS011;363;48.764;9.172;2023-12-14T07:10:30;6.33;;;4.80;;
757;SDS011;363;48.764;9.172;2023-12-14T07:12:56;11.63;;;5.50;;
757;SDS011;363;48.764;9.172;2023-12-14T07:15:21;6.40;;;4.37;;
757;SDS011;363;48.764;9.172;2023-12-14T07:17:47;5.30;;;4.77;;
757;SDS011;363;48.764;9.172;2023-12-14T07:20:13;6.63;;;5.50;;
757;SDS011;363;48.764;9.172;2023-12-14T07:22:38;7.10;;;4.70;;
757;SDS011;363;48.764;9.172;2023-12-14T07:25:04;4.63;;;4.13;;
757;SDS011;363;48.764;9.172;2023-12-14T07:27:29;7.27;;;4.37;;
757;SDS011;363;48.764;9.172;2023-12-14T07:29:55;3.93;;;3.63;;
757;SDS011;363;48.764;9.172;2023-12-14T07:32:21;5.00;;;4.13;;
757;SDS011;363;48.764;9.172;2023-12-14T07:34:46;6.17;;;4.13;;
757;SDS011;363;48.764;9.172;2023-12-14T07:37:12;5.27;;;4.37;;
757;SDS011;363;48.764;9.172;2023-12-14T07:39:38;4.80;;;3.73;;
757;SDS011;363;48.764;9.172;2023-12-14T07:42:04;4.67;;;4.00;;
757;SDS011;363;48.764;9.172;2023-12-14T07:44:30;4.18;;;3.75;;
757;SDS011;363;48.764;9.172;2023-12-14T07:46:56;3.70;;;3.37;;
757;SDS011;363;48.764;9.172;2023-12-14T07:49:25;4.25;;;3.85;;
757;SDS011;363;48.764;9.172;2023-12-14T07:51:51;4.10;;;3.70;;
757;SDS011;363;48.764;9.172;2023-12-14T07:54:16;5.15;;;4.13;;
757;SDS011;363;48.764;9.172;2023-12-14T07:56:42;3.50;;;3.20;;
757;SDS011;363;48.764;9.172;2023-12-14T07:59:08;4.23;;;3.20;;
757;SDS011;363;48.764;9.172;2023-12-14T08:01:34;4.82;;;3.15;;
757;SDS011;363;48.764;9.172;2023-12-14T08:04:00;3.83;;;3.53;;
757;SDS011;363;48.764;9.172;2023-12-14T08:06:26;4.22;;;3.47;;
757;SDS011;363;48.764;9.172;2023-12-14T08:08:52;5.40;;;4.90;;
757;SDS011;363;48.764;9.172;2023-12-14T08:11:17;4.50;;;3.53;;
757;SDS011;363;48.764;9.172;2023-12-14T08:13:43;4.10;;;3.70;;
757;SDS011;363;48.764;9.172;2023-12-14T08:16:08;3.50;;;3.20;;
757;SDS011;363;48.764;9.172;2023-12-14T08:18:36;3.92;;;3.53;;
757;SDS011;363;48.764;9.172;2023-12-14T08:21:01;3.97;;;3.63;;
757;SDS011;363;48.764;9.172;2023-12-14T08:23:27;3.90;;;3.37;;
757;SDS011;363;48.764;9.172;2023-12-14T08:25:55;4.60;;;3.97;;
757;SDS011;363;48.764;9.172;2023-12-14T08:28:23;5.10;;;4.10;;
757;SDS011;363;48.764;9.172;2023-12-14T08:30:50;4.00;;;3.58;;
757;SDS011;363;48.764;9.172;2023-12-14T08:33:16;4.30;;;3.53;;
757;SDS011;363;48.764;9.172;2023-12-14T08:35:41;4.27;;;3.53;;
757;SDS011;363;48.764;9.172;2023-12-14T08:38:07;5.00;;;4.60;;
757;SDS011;363;48.764;9.172;2023-12-14T08:40:32;6.07;;;4.93;;
757;SDS011;363;48.764;9.172;2023-12-14T08:42:58;4.60;;;4.20;;
757;SDS011;363;48.764;9.172;2023-12-14T08:45:24;4.67;;;4.27;;
757;SDS011;363;48.764;9.172;2023-12-14T08:47:49;4.73;;;4.20;;
757;SDS011;363;48.764;9.172;2023-12-14T08:50:15;4.37;;;3.80;;
757;SDS011;363;48.764;9.172;2023-12-14T08:52:40;7.30;;;4.67;;
757;SDS011;363;48.764;9.172;2023-12-14T08:55:07;5.50;;;4.80;;
757;SDS011;363;48.764;9.172;2023-12-14T08:57:33;4.68;;;4.20;;
757;SDS011;363;48.764;9.172;2023-12-14T08:59:59;5.65;;;4.88;;
757;SDS011;363;48.764;9.172;2023-12-14T09:02:26;7.20;;;5.00;;
757;SDS011;363;48.764;9.172;2023-12-14T09:04:51;6.80;;;4.85;;
757;SDS011;363;48.764;9.172;2023-12-14T09:07:17;5.20;;;4.70;;
757;SDS011;363;48.764;9.172;2023-12-14T09:09:42;6.40;;;4.80;;
757;SDS011;363;48.764;9.172;2023-12-14T09:12:09;6.57;;;5.13;;
757;SDS011;363;48.764;9.172;2023-12-14T09:14:34;4.70;;;4.23;;
757;SDS011;363;48.764;9.172;2023-12-14T09:17:01;4.70;;;4.20;;
757;SDS011;363;48.764;9.172;2023-12-14T09:19:26;4.77;;;4.37;;
757;SDS011;363;48.764;9.172;2023-12-14T09:21:53;4.80;;;3.97;;
757;SDS011;363;48.764;9.172;2023-12-14T09:24:18;4.90;;;4.10;;
757;SDS011;363;48.764;9.172;2023-12-14T09:26:44;4.40;;;4.00;;
757;SDS011;363;48.764;9.172;2023-12-14T09:29:09;4.50;;;4.10;;
757;SDS011;363;48.764;9.172;2023-12-14T09:31:35;4.83;;;4.30;;
757;SDS011;363;48.764;9.172;2023-12-14T09:34:01;4.83;;;4.33;;
757;SDS011;363;48.764;9.172;2023-12-14T09:36:26;5.80;;;4.97;;
757;SDS011;363;48.764;9.172;2023-12-14T09:38:52;5.13;;;4.73;;
757;SDS011;363;48.764;9.172;2023-12-14T09:41:18;6.60;;;4.43;;
757;SDS011;363;48.764;9.172;2023-12-14T09:43:44;5.53;;;4.70;;
757;SDS011;363;48.764;9.172;2023-12-14T09:46:10;5.28;;;4.78;;
757;SDS011;363;48.764;9.172;2023-12-14T09:48:36;5.22;;;4.65;;
757;SDS011;363;48.764;9.172;2023-12-14T09:51:02;5.60;;;4.60;;
757;SDS011;363;48.764;9.172;2023-12-14T09:53:28;5.60;;;4.93;;
757;SDS011;363;48.764;9.172;2023-12-14T09:55:53;6.27;;;5.67;;
757;SDS011;363;48.764;9.172;2023-12-14T09:58:19;6.73;;;6.13;;
757;SDS011;363;48.764;9.172;2023-12-14T10:00:44;7.00;;;6.30;;
757;SDS011;363;48.764;9.172;2023-12-14T10:03:23;5.60;;;5.00;;
757;SDS011;363;48.764;9.172;2023-12-14T10:05:51;8.82;;;5.68;;
757;SDS011;363;48.764;9.172;2023-12-14T10:08:17;7.45;;;6.60;;
757;SDS011;363;48.764;9.172;2023-12-14T10:10:43;8.20;;;6.00;;
757;SDS011;363;48.764;9.172;2023-12-14T10:13:10;5.65;;;5.13;;
757;SDS011;363;48.764;9.172;2023-12-14T10:18:08;6.28;;;5.68;;
757;SDS011;363;48.764;9.172;2023-12-14T10:20:34;6.10;;;5.50;;
757;SDS011;363;48.764;9.172;2023-12-14T10:23:01;5.68;;;5.05;;
757;SDS011;363;48.764;9.172;2023-12-14T10:25:31;5.68;;;5.07;;
757;SDS011;363;48.764;9.172;2023-12-14T10:27:57;8.13;;;5.90;;
757;SDS011;363;48.764;9.172;2023-12-14T10:30:25;9.57;;;5.25;;
757;SDS011;363;48.764;9.172;2023-12-14T10:32:53;10.57;;;8.35;;
757;SDS011;363;48.764;9.172;2023-12-14T10:35:19;8.50;;;5.97;;
757;SDS011;363;48.764;9.172;2023-12-14T10:37:47;6.78;;;4.80;;
757;SDS011;363;48.764;9.172;2023-12-14T10:40:17;8.10;;;6.13;;
757;SDS011;363;48.764;9.172;2023-12-14T10:42:44;6.35;;;5.35;;
757;SDS011;363;48.764;9.172;2023-12-14T10:45:13;5.57;;;4.75;;
757;SDS011;363;48.764;9.172;2023-12-14T10:47:44;6.05;;;5.28;;
757;SDS011;363;48.764;9.172;2023-12-14T10:50:11;9.48;;;7.85;;
757;SDS011;363;48.764;9.172;2023-12-14T10:52:40;7.00;;;4.50;;
757;SDS011;363;48.764;9.172;2023-12-14T10:55:12;6.05;;;5.38;;
757;SDS011;363;48.764;9.172;2023-12-14T10:57:45;6.15;;;5.50;;
757;SDS011;363;48.764;9.172;2023-12-14T11:00:11;5.80;;;5.20;;
757;SDS011;363;48.764;9.172;2023-12-14T11:02:39;6.95;;;5.90;;
757;SDS011;363;48.764;9.172;2023-12-14T11:05:07;6.25;;;5.50;;
757;SDS011;363;48.764;9.172;2023-12-14T11:07:56;5.03;;;4.47;;
757;SDS011;363;48.764;9.172;2023-12-14T11:10:41;5.22;;;4.72;;
757;SDS011;363;48.764;9.172;2023-12-14T11:13:12;5.93;;;4.40;;
757;SDS011;363;48.764;9.172;2023-12-14T11:15:48;6.00;;;5.10;;
757;SDS011;363;48.764;9.172;2023-12-14T11:21:00;5.80;;;4.10;;
757;SDS011;363;48.764;9.172;2023-12-14T11:26:14;5.35;;;4.40;;
757;SDS011;363;48.764;9.172;2023-12-14T11:28:47;4.50;;;4.07;;
757;SDS011;363;48.764;9.172;2023-12-14T11:31:13;7.38;;;4.47;;
757;SDS011;363;48.764;9.172;2023-12-14T11:33:39;5.90;;;4.93;;
757;SDS011;363;48.764;9.172;2023-12-14T11:36:05;8.35;;;4.82;;
757;SDS011;363;48.764;9.172;2023-12-14T11:38:31;6.68;;;4.97;;
757;SDS011;363;48.764;9.172;2023-12-14T11:40:59;6.57;;;4.53;;
757;SDS011;363;48.764;9.172;2023-12-14T11:43:25;6.13;;;5.37;;
757;SDS011;363;48.764;9.172;2023-12-14T11:45:51;11.23;;;5.57;;
757;SDS011;363;48.764;9.172;2023-12-14T11:48:17;7.90;;;6.28;;
757;SDS011;363;48.764;9.172;2023-12-14T11:50:45;6.60;;;5.30;;
757;SDS011;363;48.764;9.172;2023-12-14T11:53:11;6.40;;;5.63;;
757;SDS011;363;48.764;9.172;2023-12-14T11:55:37;9.05;;;5.78;;
757;SDS011;363;48.764;9.172;2023-12-14T11:58:05;6.10;;;5.47;;
757;SDS011;363;48.764;9.172;2023-12-14T12:00:31;6.35;;;4.68;;
757;SDS011;363;48.764;9.172;2023-12-14T12:05:41;6.10;;;5.07;;
757;SDS011;363;48.764;9.172;2023-12-14T12:08:08;4.20;;;3.17;;
757;SDS011;363;48.764;9.172;2023-12-14T12:10:36;3.72;;;2.72;;
757;SDS011;363;48.764;9.172;2023-12-14T12:13:03;3.47;;;2.67;;
757;SDS011;363;48.764;9.172;2023-12-14T12:15:31;2.65;;;2.35;;
757;SDS011;363;48.764;9.172;2023-12-14T12:17:58;3.10;;;2.40;;
757;SDS011;363;48.764;9.172;2023-12-14T12:20:23;2.37;;;1.70;;
757;SDS011;363;48.764;9.172;2023-12-14T12:22:50;2.80;;;2.10;;
757;SDS011;363;48.764;9.172;2023-12-14T12:25:16;2.97;;;2.77;;
757;SDS011;363;48.764;9.172;2023-12-14T12:27:43;4.70;;;3.10;;
757;SDS011;363;48.764;9.172;2023-12-14T12:30:09;2.63;;;2.25;;
757;SDS011;363;48.764;9.172;2023-12-14T12:32:35;2.83;;;2.55;;
757;SDS011;363;48.764;9.172;2023-12-14T12:35:01;3.40;;;2.50;;
757;SDS011;363;48.764;9.172;2023-12-14T12:37:26;2.30;;;2.10;;
757;SDS011;363;48.764;9.172;2023-12-14T12:39:52;2.30;;;2.10;;
757;SDS011;363;48.764;9.172;2023-12-14T12:42:17;2.50;;;2.30;;
757;SDS011;363;48.764;9.172;2023-12-14T12:44:43;2.50;;;2.30;;
757;SDS011;363;48.764;9.172;2023-12-14T12:47:09;3.15;;;2.10;;
757;SDS011;363;48.764;9.172;2023-12-14T12:49:34;1.83;;;1.60;;
757;SDS011;363;48.764;9.172;2023-12-14T12:52:00;5.20;;;2.10;;
757;SDS011;363;48.764;9.172;2023-12-14T12:54:25;2.97;;;2.57;;
757;SDS011;363;48.764;9.172;2023-12-14T12:56:51;3.10;;;2.37;;
757;SDS011;363;48.764;9.172;2023-12-14T12:59:17;1.93;;;1.80;;
757;SDS011;363;48.764;9.172;2023-12-14T13:01:42;2.00;;;1.80;;
757;SDS011;363;48.764;9.172;2023-12-14T13:04:22;2.38;;;2.17;;
757;SDS011;363;48.764;9.172;2023-12-14T13:06:48;4.55;;;1.83;;
757;SDS011;363;48.764;9.172;2023-12-14T13:09:15;1.70;;;1.60;;
757;SDS011;363;48.764;9.172;2023-12-14T13:11:42;2.08;;;1.63;;
757;SDS011;363;48.764;9.172;2023-12-14T13:14:11;2.10;;;1.95;;
757;SDS011;363;48.764;9.172;2023-12-14T13:16:37;4.45;;;2.50;;
757;SDS011;363;48.764;9.172;2023-12-14T13:19:04;3.03;;;2.30;;
757;SDS011;363;48.764;9.172;2023-12-14T13:21:31;2.83;;;1.90;;
757;SDS011;363;48.764;9.172;2023-12-14T13:24:00;2.30;;;2.00;;
757;SDS011;363;48.764;9.172;2023-12-14T13:26:26;2.97;;;1.70;;
757;SDS011;363;48.764;9.172;2023-12-14T13:28:52;1.70;;;1.60;;
757;SDS011;363;48.764;9.172;2023-12-14T13:31:17;2.55;;;1.83;;
757;SDS011;363;48.764;9.172;2023-12-14T13:33:44;3.15;;;2.85;;
757;SDS011;363;48.764;9.172;2023-12-14T13:36:11;3.97;;;2.75;;
757;SDS011;363;48.764;9.172;2023-12-14T13:38:37;2.33;;;2.13;;
757;SDS011;363;48.764;9.172;2023-12-14T13:41:03;2.00;;;1.80;;
757;SDS011;363;48.764;9.172;2023-12-14T13:43:28;2.07;;;1.80;;
757;SDS011;363;48.764;9.172;2023-12-14T13:45:54;3.60;;;1.90;;
757;SDS011;363;48.764;9.172;2023-12-14T13:48:23;2.88;;;2.60;;
757;SDS011;363;48.764;9.172;2023-12-14T13:50:50;4.97;;;4.30;;
757;SDS011;363;48.764;9.172;2023-12-14T13:53:15;3.13;;;2.80;;
757;SDS011;363;48.764;9.172;2023-12-14T13:55:41;3.43;;;3.13;;
757;SDS011;363;48.764;9.172;2023-12-14T13:58:07;3.70;;;2.33;;
757;SDS011;363;48.764;9.172;2023-12-14T14:00:32;6.07;;;2.30;;
757;SDS011;363;48.764;9.172;2023-12-14T14:02:59;3.38;;;2.20;;
757;SDS011;363;48.764;9.172;2023-12-14T14:05:25;3.45;;;3.08;;
757;SDS011;363;48.764;9.172;2023-12-14T14:07:51;7.32;;;3.75;;
757;SDS011;363;48.764;9.172;2023-12-14T14:10:17;3.90;;;3.10;;
757;SDS011;363;48.764;9.172;2023-12-14T14:12:43;3.50;;;2.83;;
757;SDS011;363;48.764;9.172;2023-12-14T14:15:09;3.47;;;3.03;;
757;SDS011;363;48.764;9.172;2023-12-14T14:17:35;3.90;;;3.55;;
757;SDS011;363;48.764;9.172;2023-12-14T14:20:01;4.30;;;3.77;;
757;SDS011;363;48.764;9.172;2023-12-14T14:22:26;4.90;;;4.03;;
757;SDS011;363;48.764;9.172;2023-12-14T14:24:52;4.47;;;3.80;;
757;SDS011;363;48.764;9.172;2023-12-14T14:27:17;4.53;;;4.00;;
757;SDS011;363;48.764;9.172;2023-12-14T14:29:43;5.53;;;5.00;;
757;SDS011;363;48.764;9.172;2023-12-14T14:32:08;6.67;;;5.43;;
757;SDS011;363;48.764;9.172;2023-12-14T14:34:34;6.50;;;5.80;;
757;SDS011;363;48.764;9.172;2023-12-14T14:37:00;7.20;;;5.50;;
757;SDS011;363;48.764;9.172;2023-12-14T14:39:26;10.57;;;6.67;;
757;SDS011;363;48.764;9.172;2023-12-14T14:41:52;8.83;;;5.90;;
757;SDS011;363;48.764;9.172;2023-12-14T14:44:18;10.77;;;6.47;;
757;SDS011;363;48.764;9.172;2023-12-14T14:46:43;8.50;;;6.30;;
757;SDS011;363;48.764;9.172;2023-12-14T14:49:09;8.00;;;6.50;;
757;SDS011;363;48.764;9.172;2023-12-14T14:51:35;9.27;;;7.33;;
757;SDS011;363;48.764;9.172;2023-12-14T14:54:00;8.17;;;6.87;;
757;SDS011;363;48.764;9.172;2023-12-14T14:56:26;8.70;;;7.80;;
757;SDS011;363;48.764;9.172;2023-12-14T14:58:51;9.30;;;7.27;;
757;SDS011;363;48.764;9.172;2023-12-14T15:01:17;10.80;;;7.63;;
757;SDS011;363;48.764;9.172;2023-12-14T15:03:44;9.75;;;7.30;;
757;SDS011;363;48.764;9.172;2023-12-14T15:06:10;9.70;;;7.55;;
757;SDS011;363;48.764;9.172;2023-12-14T15:08:36;11.60;;;8.73;;
757;SDS011;363;48.764;9.172;2023-12-14T15:11:01;13.40;;;8.90;;
757;SDS011;363;48.764;9.172;2023-12-14T15:13:31;9.75;;;7.68;;
757;SDS011;363;48.764;9.172;2023-12-14T15:15:57;9.20;;;7.90;;
757;SDS011;363;48.764;9.172;2023-12-14T15:18:23;11.27;;;8.80;;
757;SDS011;363;48.764;9.172;2023-12-14T15:20:48;12.13;;;8.70;;
757;SDS011;363;48.764;9.172;2023-12-14T15:23:16;11.35;;;7.97;;
757;SDS011;363;48.764;9.172;2023-12-14T15:25:41;9.40;;;8.20;;
757;SDS011;363;48.764;9.172;2023-12-14T15:28:07;11.03;;;8.47;;
757;SDS011;363;48.764;9.172;2023-12-14T15:30:33;10.40;;;8.57;;
757;SDS011;363;48.764;9.172;2023-12-14T15:32:59;9.90;;;8.40;;
757;SDS011;363;48.764;9.172;2023-12-14T15:35:25;11.27;;;8.13;;
757;SDS011;363;48.764;9.172;2023-12-14T15:37:51;11.70;;;8.47;;
757;SDS011;363;48.764;9.172;2023-12-14T15:40:16;10.10;;;7.70;;
757;SDS011;363;48.764;9.172;2023-12-14T15:42:42;10.10;;;7.70;;
757;SDS011;363;48.764;9.172;2023-12-14T15:45:07;11.00;;;8.87;;
757;SDS011;363;48.764;9.172;2023-12-14T15:47:33;9.18;;;7.78;;
757;SDS011;363;48.764;9.172;2023-12-14T15:49:59;12.83;;;9.37;;